sensor_id;sensor_type;location;lat;lon;timestamp;P1;durP1;ratioP1;P2;durP2;ratioP2
41201;SDS011;26936;50.524;8.684;2023-05-02T00:00:42;7.72;;;5.38;;
41201;SDS011;26936;50.524;8.684;2023-05-02T00:03:09;6.70;;;5.68;;
41201;SDS011;26936;50.524;8.684;2023-05-02T00:05:35;7.57;;;5.75;;
41201;SDS011;26936;50.524;8.684;2023-05-02T00:08:00;9.85;;;5.50;;
41201;SDS011;26936;50.524;8.684;2023-05-02T00:10:26;7.72;;;5.00;;
41201;SDS011;26936;50.524;8.684;2023-05-02T00:12:51;7.30;;;5.40;;
41201;SDS011;26936;50.524;8.684;2023-05-02T00:15:17;10.00;;;6.22;;
41201;SDS011;26936;50.524;8.684;2023-05-02T00:17:42;11.63;;;5.63;;
41201;SDS011;26936;50.524;8.684;2023-05-02T00:20:08;7.45;;;5.57;;
41201;SDS011;26936;50.524;8.684;2023-05-02T00:22:34;7.53;;;5.90;;
41201;SDS011;26936;50.524;8.684;2023-05-02T00:25:00;9.85;;;6.68;;
41201;SDS011;26936;50.524;8.684;2023-05-02T00:27:25;9.65;;;6.68;;
41201;SDS011;26936;50.524;8.684;2023-05-02T00:29:52;10.98;;;6.80;;
41201;SDS011;26936;50.524;8.684;2023-05-02T00:32:17;8.82;;;5.82;;
41201;SDS011;26936;50.524;8.684;2023-05-02T00:34:43;9.07;;;5.68;;
41201;SDS011;26936;50.524;8.684;2023-05-02T00:37:08;9.77;;;5.55;;
41201;SDS011;26936;50.524;8.684;2023-05-02T00:39:34;10.38;;;7.30;;
41201;SDS011;26936;50.524;8.684;2023-05-02T00:41:59;10.48;;;6.95;;
41201;SDS011;26936;50.524;8.684;2023-05-02T00:44:25;12.15;;;7.65;;
41201;SDS011;26936;50.524;8.684;2023-05-02T00:46:51;14.55;;;7.97;;
41201;SDS011;26936;50.524;8.684;2023-05-02T00:49:17;12.52;;;8.45;;
41201;SDS011;26936;50.524;8.684;2023-05-02T00:51:43;10.90;;;8.00;;
41201;SDS011;26936;50.524;8.684;2023-05-02T00:54:08;11.65;;;8.95;;
41201;SDS011;26936;50.524;8.684;2023-05-02T00:56:33;12.55;;;8.40;;
41201;SDS011;26936;50.524;8.684;2023-05-02T00:58:59;13.80;;;9.48;;
41201;SDS011;26936;50.524;8.684;2023-05-02T01:12:00;12.15;;;8.80;;
41201;SDS011;26936;50.524;8.684;2023-05-02T01:14:32;12.18;;;8.77;;
41201;SDS011;26936;50.524;8.684;2023-05-02T01:17:01;11.20;;;8.70;;
41201;SDS011;26936;50.524;8.684;2023-05-02T01:19:30;13.02;;;8.40;;
41201;SDS011;26936;50.524;8.684;2023-05-02T01:22:00;14.13;;;10.27;;
41201;SDS011;26936;50.524;8.684;2023-05-02T01:24:34;13.95;;;8.82;;
41201;SDS011;26936;50.524;8.684;2023-05-02T01:27:11;14.20;;;8.88;;
41201;SDS011;26936;50.524;8.684;2023-05-02T01:29:48;13.30;;;9.32;;
41201;SDS011;26936;50.524;8.684;2023-05-02T01:32:15;13.95;;;9.05;;
41201;SDS011;26936;50.524;8.684;2023-05-02T01:34:43;14.60;;;8.98;;
41201;SDS011;26936;50.524;8.684;2023-05-02T01:37:11;12.15;;;9.18;;
41201;SDS011;26936;50.524;8.684;2023-05-02T01:39:39;15.57;;;9.50;;
41201;SDS011;26936;50.524;8.684;2023-05-02T01:42:06;14.63;;;9.45;;
41201;SDS011;26936;50.524;8.684;2023-05-02T01:44:31;13.88;;;10.02;;
41201;SDS011;26936;50.524;8.684;2023-05-02T01:47:00;14.57;;;10.00;;
41201;SDS011;26936;50.524;8.684;2023-05-02T01:49:30;16.13;;;10.32;;
41201;SDS011;26936;50.524;8.684;2023-05-02T01:51:57;16.58;;;10.65;;
41201;SDS011;26936;50.524;8.684;2023-05-02T01:54:27;14.40;;;10.82;;
41201;SDS011;26936;50.524;8.684;2023-05-02T01:56:54;18.02;;;11.43;;
41201;SDS011;26936;50.524;8.684;2023-05-02T01:59:20;16.08;;;10.82;;
41201;SDS011;26936;50.524;8.684;2023-05-02T02:01:47;17.83;;;11.32;;
41201;SDS011;26936;50.524;8.684;2023-05-02T02:04:15;17.63;;;12.00;;
41201;SDS011;26936;50.524;8.684;2023-05-02T02:06:44;19.17;;;12.15;;
41201;SDS011;26936;50.524;8.684;2023-05-02T02:09:12;16.05;;;11.48;;
41201;SDS011;26936;50.524;8.684;2023-05-02T02:14:27;16.75;;;11.30;;
41201;SDS011;26936;50.524;8.684;2023-05-02T02:17:24;18.25;;;12.07;;
41201;SDS011;26936;50.524;8.684;2023-05-02T02:19:53;17.70;;;11.82;;
41201;SDS011;26936;50.524;8.684;2023-05-02T02:22:20;17.88;;;11.93;;
41201;SDS011;26936;50.524;8.684;2023-05-02T02:24:50;14.45;;;10.68;;
41201;SDS011;26936;50.524;8.684;2023-05-02T02:27:17;16.27;;;11.10;;
41201;SDS011;26936;50.524;8.684;2023-05-02T02:29:43;16.70;;;11.32;;
41201;SDS011;26936;50.524;8.684;2023-05-02T02:32:08;18.23;;;12.10;;
41201;SDS011;26936;50.524;8.684;2023-05-02T02:34:33;17.95;;;11.60;;
41201;SDS011;26936;50.524;8.684;2023-05-02T02:37:11;17.70;;;12.10;;
41201;SDS011;26936;50.524;8.684;2023-05-02T02:42:23;15.85;;;11.73;;
41201;SDS011;26936;50.524;8.684;2023-05-02T02:45:04;16.90;;;11.43;;
41201;SDS011;26936;50.524;8.684;2023-05-02T02:47:42;17.17;;;12.07;;
41201;SDS011;26936;50.524;8.684;2023-05-02T02:50:23;17.55;;;12.30;;
41201;SDS011;26936;50.524;8.684;2023-05-02T02:53:01;21.60;;;12.40;;
41201;SDS011;26936;50.524;8.684;2023-05-02T02:55:35;15.85;;;11.60;;
41201;SDS011;26936;50.524;8.684;2023-05-02T03:01:06;19.90;;;12.80;;
41201;SDS011;26936;50.524;8.684;2023-05-02T03:03:35;20.50;;;12.90;;
41201;SDS011;26936;50.524;8.684;2023-05-02T03:06:04;24.77;;;15.27;;
41201;SDS011;26936;50.524;8.684;2023-05-02T03:08:39;28.20;;;16.80;;
41201;SDS011;26936;50.524;8.684;2023-05-02T03:11:05;25.80;;;16.80;;
41201;SDS011;26936;50.524;8.684;2023-05-02T03:13:31;26.13;;;16.67;;
41201;SDS011;26936;50.524;8.684;2023-05-02T03:18:37;27.90;;;17.73;;
41201;SDS011;26936;50.524;8.684;2023-05-02T03:21:04;28.65;;;17.75;;
41201;SDS011;26936;50.524;8.684;2023-05-02T03:23:29;24.05;;;15.98;;
41201;SDS011;26936;50.524;8.684;2023-05-02T03:25:55;28.48;;;17.15;;
41201;SDS011;26936;50.524;8.684;2023-05-02T03:28:20;26.40;;;16.83;;
41201;SDS011;26936;50.524;8.684;2023-05-02T03:30:45;24.73;;;16.73;;
41201;SDS011;26936;50.524;8.684;2023-05-02T03:33:10;23.73;;;16.50;;
41201;SDS011;26936;50.524;8.684;2023-05-02T03:35:36;24.87;;;16.20;;
41201;SDS011;26936;50.524;8.684;2023-05-02T03:38:01;28.67;;;18.00;;
41201;SDS011;26936;50.524;8.684;2023-05-02T03:40:26;28.98;;;18.50;;
41201;SDS011;26936;50.524;8.684;2023-05-02T03:42:52;28.70;;;18.65;;
41201;SDS011;26936;50.524;8.684;2023-05-02T03:45:17;29.10;;;18.30;;
41201;SDS011;26936;50.524;8.684;2023-05-02T03:47:42;28.95;;;18.60;;
41201;SDS011;26936;50.524;8.684;2023-05-02T03:50:08;27.75;;;18.65;;
41201;SDS011;26936;50.524;8.684;2023-05-02T03:52:33;29.52;;;19.73;;
41201;SDS011;26936;50.524;8.684;2023-05-02T03:54:59;29.77;;;19.60;;
41201;SDS011;26936;50.524;8.684;2023-05-02T03:57:25;29.25;;;19.88;;
41201;SDS011;26936;50.524;8.684;2023-05-02T03:59:50;30.23;;;20.37;;
41201;SDS011;26936;50.524;8.684;2023-05-02T04:02:15;32.47;;;20.63;;
41201;SDS011;26936;50.524;8.684;2023-05-02T04:04:41;34.23;;;21.20;;
41201;SDS011;26936;50.524;8.684;2023-05-02T04:07:07;36.10;;;22.25;;
41201;SDS011;26936;50.524;8.684;2023-05-02T04:09:33;36.88;;;23.13;;
41201;SDS011;26936;50.524;8.684;2023-05-02T04:11:59;33.88;;;22.25;;
41201;SDS011;26936;50.524;8.684;2023-05-02T04:14:25;38.67;;;24.33;;
41201;SDS011;26936;50.524;8.684;2023-05-02T04:16:51;41.85;;;23.58;;
41201;SDS011;26936;50.524;8.684;2023-05-02T04:19:17;43.85;;;24.00;;
41201;SDS011;26936;50.524;8.684;2023-05-02T04:21:43;39.47;;;24.35;;
41201;SDS011;26936;50.524;8.684;2023-05-02T04:24:09;41.38;;;24.20;;
41201;SDS011;26936;50.524;8.684;2023-05-02T04:26:34;40.30;;;24.63;;
41201;SDS011;26936;50.524;8.684;2023-05-02T04:29:00;42.60;;;25.15;;
41201;SDS011;26936;50.524;8.684;2023-05-02T04:31:25;44.05;;;24.38;;
41201;SDS011;26936;50.524;8.684;2023-05-02T04:33:51;40.10;;;23.98;;
41201;SDS011;26936;50.524;8.684;2023-05-02T04:36:16;45.50;;;25.92;;
41201;SDS011;26936;50.524;8.684;2023-05-02T04:38:43;50.70;;;27.45;;
41201;SDS011;26936;50.524;8.684;2023-05-02T04:41:08;43.20;;;24.83;;
41201;SDS011;26936;50.524;8.684;2023-05-02T04:43:33;46.35;;;26.40;;
41201;SDS011;26936;50.524;8.684;2023-05-02T04:45:58;41.07;;;25.17;;
41201;SDS011;26936;50.524;8.684;2023-05-02T04:48:24;40.93;;;25.63;;
41201;SDS011;26936;50.524;8.684;2023-05-02T04:50:50;40.65;;;24.90;;
41201;SDS011;26936;50.524;8.684;2023-05-02T04:53:17;44.88;;;26.65;;
41201;SDS011;26936;50.524;8.684;2023-05-02T04:55:44;45.83;;;26.45;;
41201;SDS011;26936;50.524;8.684;2023-05-02T04:58:09;42.80;;;25.65;;
41201;SDS011;26936;50.524;8.684;2023-05-02T05:00:34;37.00;;;23.85;;
41201;SDS011;26936;50.524;8.684;2023-05-02T05:03:00;42.87;;;25.77;;
41201;SDS011;26936;50.524;8.684;2023-05-02T05:05:25;40.85;;;25.25;;
41201;SDS011;26936;50.524;8.684;2023-05-02T05:07:50;42.63;;;24.87;;
41201;SDS011;26936;50.524;8.684;2023-05-02T05:10:16;41.85;;;25.45;;
41201;SDS011;26936;50.524;8.684;2023-05-02T05:12:42;46.67;;;27.45;;
41201;SDS011;26936;50.524;8.684;2023-05-02T05:15:07;45.65;;;27.08;;
41201;SDS011;26936;50.524;8.684;2023-05-02T05:17:33;45.17;;;26.98;;
41201;SDS011;26936;50.524;8.684;2023-05-02T05:19:58;45.10;;;26.35;;
41201;SDS011;26936;50.524;8.684;2023-05-02T05:22:23;42.63;;;24.87;;
41201;SDS011;26936;50.524;8.684;2023-05-02T05:24:55;46.38;;;27.52;;
41201;SDS011;26936;50.524;8.684;2023-05-02T05:27:20;42.78;;;25.40;;
41201;SDS011;26936;50.524;8.684;2023-05-02T05:29:45;43.15;;;25.70;;
41201;SDS011;26936;50.524;8.684;2023-05-02T05:32:11;40.45;;;24.58;;
41201;SDS011;26936;50.524;8.684;2023-05-02T05:34:36;42.50;;;23.07;;
41201;SDS011;26936;50.524;8.684;2023-05-02T05:37:01;34.65;;;22.13;;
41201;SDS011;26936;50.524;8.684;2023-05-02T05:39:27;34.47;;;21.23;;
41201;SDS011;26936;50.524;8.684;2023-05-02T05:41:52;33.42;;;20.88;;
41201;SDS011;26936;50.524;8.684;2023-05-02T05:44:18;32.05;;;20.05;;
41201;SDS011;26936;50.524;8.684;2023-05-02T05:46:46;31.52;;;20.80;;
41201;SDS011;26936;50.524;8.684;2023-05-02T05:49:11;30.23;;;19.52;;
41201;SDS011;26936;50.524;8.684;2023-05-02T05:51:37;30.00;;;18.90;;
41201;SDS011;26936;50.524;8.684;2023-05-02T05:54:02;30.20;;;18.60;;
41201;SDS011;26936;50.524;8.684;2023-05-02T05:56:28;28.60;;;18.35;;
41201;SDS011;26936;50.524;8.684;2023-05-02T05:58:55;28.17;;;18.40;;
41201;SDS011;26936;50.524;8.684;2023-05-02T06:01:20;29.83;;;18.57;;
41201;SDS011;26936;50.524;8.684;2023-05-02T06:03:45;25.07;;;17.13;;
41201;SDS011;26936;50.524;8.684;2023-05-02T06:06:11;26.95;;;18.00;;
41201;SDS011;26936;50.524;8.684;2023-05-02T06:08:36;25.08;;;16.23;;
41201;SDS011;26936;50.524;8.684;2023-05-02T06:11:01;27.25;;;18.08;;
41201;SDS011;26936;50.524;8.684;2023-05-02T06:13:27;25.73;;;17.73;;
41201;SDS011;26936;50.524;8.684;2023-05-02T06:15:52;27.77;;;18.48;;
41201;SDS011;26936;50.524;8.684;2023-05-02T06:18:17;27.00;;;17.50;;
41201;SDS011;26936;50.524;8.684;2023-05-02T06:20:43;24.67;;;17.23;;
41201;SDS011;26936;50.524;8.684;2023-05-02T06:23:08;28.20;;;18.02;;
41201;SDS011;26936;50.524;8.684;2023-05-02T06:25:36;31.42;;;17.83;;
41201;SDS011;26936;50.524;8.684;2023-05-02T06:28:01;24.45;;;16.00;;
41201;SDS011;26936;50.524;8.684;2023-05-02T06:30:27;26.50;;;17.75;;
41201;SDS011;26936;50.524;8.684;2023-05-02T06:32:52;25.67;;;16.05;;
41201;SDS011;26936;50.524;8.684;2023-05-02T06:35:17;26.20;;;16.95;;
41201;SDS011;26936;50.524;8.684;2023-05-02T06:37:42;26.15;;;17.58;;
41201;SDS011;26936;50.524;8.684;2023-05-02T06:40:08;25.08;;;15.80;;
41201;SDS011;26936;50.524;8.684;2023-05-02T06:42:34;26.05;;;15.77;;
41201;SDS011;26936;50.524;8.684;2023-05-02T06:44:59;25.63;;;16.50;;
41201;SDS011;26936;50.524;8.684;2023-05-02T06:47:24;22.45;;;14.60;;
41201;SDS011;26936;50.524;8.684;2023-05-02T06:49:50;22.67;;;14.43;;
41201;SDS011;26936;50.524;8.684;2023-05-02T06:52:16;24.30;;;15.27;;
41201;SDS011;26936;50.524;8.684;2023-05-02T06:54:42;23.70;;;14.57;;
41201;SDS011;26936;50.524;8.684;2023-05-02T06:57:08;22.45;;;14.25;;
41201;SDS011;26936;50.524;8.684;2023-05-02T06:59:34;22.92;;;14.75;;
41201;SDS011;26936;50.524;8.684;2023-05-02T07:02:00;25.58;;;13.90;;
41201;SDS011;26936;50.524;8.684;2023-05-02T07:04:25;22.93;;;14.60;;
41201;SDS011;26936;50.524;8.684;2023-05-02T07:06:50;24.17;;;15.27;;
41201;SDS011;26936;50.524;8.684;2023-05-02T07:09:16;24.30;;;14.18;;
41201;SDS011;26936;50.524;8.684;2023-05-02T07:11:41;23.70;;;14.95;;
41201;SDS011;26936;50.524;8.684;2023-05-02T07:14:06;23.88;;;15.68;;
41201;SDS011;26936;50.524;8.684;2023-05-02T07:16:32;25.00;;;14.98;;
41201;SDS011;26936;50.524;8.684;2023-05-02T07:18:57;24.65;;;14.38;;
41201;SDS011;26936;50.524;8.684;2023-05-02T07:21:23;22.92;;;13.60;;
41201;SDS011;26936;50.524;8.684;2023-05-02T07:23:48;25.00;;;14.80;;
41201;SDS011;26936;50.524;8.684;2023-05-02T07:26:13;28.13;;;14.88;;
41201;SDS011;26936;50.524;8.684;2023-05-02T07:28:39;28.20;;;15.20;;
41201;SDS011;26936;50.524;8.684;2023-05-02T07:31:04;23.55;;;14.68;;
41201;SDS011;26936;50.524;8.684;2023-05-02T07:33:30;28.50;;;15.63;;
41201;SDS011;26936;50.524;8.684;2023-05-02T07:35:55;26.52;;;14.55;;
41201;SDS011;26936;50.524;8.684;2023-05-02T07:38:20;23.85;;;13.98;;
41201;SDS011;26936;50.524;8.684;2023-05-02T07:40:46;23.85;;;14.07;;
41201;SDS011;26936;50.524;8.684;2023-05-02T07:43:12;23.43;;;13.83;;
41201;SDS011;26936;50.524;8.684;2023-05-02T07:45:37;27.95;;;15.10;;
41201;SDS011;26936;50.524;8.684;2023-05-02T07:48:02;22.27;;;14.73;;
41201;SDS011;26936;50.524;8.684;2023-05-02T07:50:28;22.67;;;14.05;;
41201;SDS011;26936;50.524;8.684;2023-05-02T07:52:54;23.67;;;13.95;;
41201;SDS011;26936;50.524;8.684;2023-05-02T07:55:20;22.45;;;14.05;;
41201;SDS011;26936;50.524;8.684;2023-05-02T07:57:45;22.33;;;14.07;;
41201;SDS011;26936;50.524;8.684;2023-05-02T08:00:11;28.02;;;14.10;;
41201;SDS011;26936;50.524;8.684;2023-05-02T08:02:37;23.40;;;14.15;;
41201;SDS011;26936;50.524;8.684;2023-05-02T08:05:02;23.40;;;14.20;;
41201;SDS011;26936;50.524;8.684;2023-05-02T08:07:28;27.35;;;15.80;;
41201;SDS011;26936;50.524;8.684;2023-05-02T08:09:53;22.88;;;14.30;;
41201;SDS011;26936;50.524;8.684;2023-05-02T08:12:18;25.15;;;14.80;;
41201;SDS011;26936;50.524;8.684;2023-05-02T08:14:44;24.75;;;15.50;;
41201;SDS011;26936;50.524;8.684;2023-05-02T08:17:09;22.88;;;13.95;;
41201;SDS011;26936;50.524;8.684;2023-05-02T08:19:34;24.65;;;14.27;;
41201;SDS011;26936;50.524;8.684;2023-05-02T08:21:59;25.20;;;14.20;;
41201;SDS011;26936;50.524;8.684;2023-05-02T08:24:25;24.30;;;14.85;;
41201;SDS011;26936;50.524;8.684;2023-05-02T08:26:50;25.42;;;14.52;;
41201;SDS011;26936;50.524;8.684;2023-05-02T08:29:16;28.60;;;16.05;;
41201;SDS011;26936;50.524;8.684;2023-05-02T08:31:41;22.88;;;14.07;;
41201;SDS011;26936;50.524;8.684;2023-05-02T08:34:06;23.38;;;14.63;;
41201;SDS011;26936;50.524;8.684;2023-05-02T08:36:32;26.48;;;15.77;;
41201;SDS011;26936;50.524;8.684;2023-05-02T08:38:57;24.45;;;14.13;;
41201;SDS011;26936;50.524;8.684;2023-05-02T08:41:22;25.88;;;14.10;;
41201;SDS011;26936;50.524;8.684;2023-05-02T08:43:49;23.27;;;13.50;;
41201;SDS011;26936;50.524;8.684;2023-05-02T08:46:15;24.17;;;14.27;;
41201;SDS011;26936;50.524;8.684;2023-05-02T08:48:41;21.67;;;12.48;;
41201;SDS011;26936;50.524;8.684;2023-05-02T08:51:10;20.23;;;11.88;;
41201;SDS011;26936;50.524;8.684;2023-05-02T08:53:38;17.85;;;11.10;;
41201;SDS011;26936;50.524;8.684;2023-05-02T08:56:09;21.27;;;11.20;;
41201;SDS011;26936;50.524;8.684;2023-05-02T08:58:36;18.58;;;10.88;;
41201;SDS011;26936;50.524;8.684;2023-05-02T09:01:03;17.08;;;9.80;;
41201;SDS011;26936;50.524;8.684;2023-05-02T09:03:34;16.67;;;9.80;;
41201;SDS011;26936;50.524;8.684;2023-05-02T09:06:06;18.33;;;9.80;;
41201;SDS011;26936;50.524;8.684;2023-05-02T09:08:31;17.67;;;10.15;;
41201;SDS011;26936;50.524;8.684;2023-05-02T09:10:58;17.30;;;9.43;;
41201;SDS011;26936;50.524;8.684;2023-05-02T09:13:27;18.20;;;9.57;;
41201;SDS011;26936;50.524;8.684;2023-05-02T09:16:07;17.10;;;9.13;;
41201;SDS011;26936;50.524;8.684;2023-05-02T09:21:03;14.93;;;8.95;;
41201;SDS011;26936;50.524;8.684;2023-05-02T09:23:43;14.15;;;8.82;;
41201;SDS011;26936;50.524;8.684;2023-05-02T09:26:13;12.85;;;7.85;;
41201;SDS011;26936;50.524;8.684;2023-05-02T09:28:53;13.23;;;7.53;;
41201;SDS011;26936;50.524;8.684;2023-05-02T09:31:22;12.40;;;7.85;;
41201;SDS011;26936;50.524;8.684;2023-05-02T09:33:50;10.52;;;7.05;;
41201;SDS011;26936;50.524;8.684;2023-05-02T09:36:16;9.57;;;6.65;;
41201;SDS011;26936;50.524;8.684;2023-05-02T09:38:43;7.22;;;5.05;;
41201;SDS011;26936;50.524;8.684;2023-05-02T09:41:10;7.07;;;4.88;;
41201;SDS011;26936;50.524;8.684;2023-05-02T09:43:36;8.10;;;4.55;;
41201;SDS011;26936;50.524;8.684;2023-05-02T09:46:03;6.50;;;4.50;;
41201;SDS011;26936;50.524;8.684;2023-05-02T09:48:51;7.55;;;5.25;;
41201;SDS011;26936;50.524;8.684;2023-05-02T09:51:23;7.38;;;4.93;;
41201;SDS011;26936;50.524;8.684;2023-05-02T09:53:49;11.82;;;5.68;;
41201;SDS011;26936;50.524;8.684;2023-05-02T09:56:15;8.00;;;5.10;;
41201;SDS011;26936;50.524;8.684;2023-05-02T09:58:41;7.93;;;5.38;;
41201;SDS011;26936;50.524;8.684;2023-05-02T10:01:06;8.00;;;5.05;;
41201;SDS011;26936;50.524;8.684;2023-05-02T10:03:31;7.93;;;4.82;;
41201;SDS011;26936;50.524;8.684;2023-05-02T10:06:01;9.15;;;4.72;;
41201;SDS011;26936;50.524;8.684;2023-05-02T10:08:28;11.13;;;5.43;;
41201;SDS011;26936;50.524;8.684;2023-05-02T10:10:57;7.20;;;4.60;;
41201;SDS011;26936;50.524;8.684;2023-05-02T10:13:23;8.32;;;4.20;;
41201;SDS011;26936;50.524;8.684;2023-05-02T10:16:01;5.13;;;3.45;;
41201;SDS011;26936;50.524;8.684;2023-05-02T10:18:29;5.75;;;3.17;;
41201;SDS011;26936;50.524;8.684;2023-05-02T10:21:09;5.20;;;3.40;;
41201;SDS011;26936;50.524;8.684;2023-05-02T10:23:36;5.78;;;3.38;;
41201;SDS011;26936;50.524;8.684;2023-05-02T10:26:05;6.20;;;3.53;;
41201;SDS011;26936;50.524;8.684;2023-05-02T10:28:31;6.63;;;3.95;;
41201;SDS011;26936;50.524;8.684;2023-05-02T10:30:57;3.83;;;2.63;;
41201;SDS011;26936;50.524;8.684;2023-05-02T10:33:24;3.03;;;1.80;;
41201;SDS011;26936;50.524;8.684;2023-05-02T10:35:50;1.80;;;1.23;;
41201;SDS011;26936;50.524;8.684;2023-05-02T10:38:19;1.25;;;1.15;;
41201;SDS011;26936;50.524;8.684;2023-05-02T10:40:46;2.72;;;1.40;;
41201;SDS011;26936;50.524;8.684;2023-05-02T10:43:19;1.58;;;1.10;;
41201;SDS011;26936;50.524;8.684;2023-05-02T10:45:46;2.90;;;1.20;;
41201;SDS011;26936;50.524;8.684;2023-05-02T10:48:18;2.55;;;1.30;;
41201;SDS011;26936;50.524;8.684;2023-05-02T10:50:45;2.95;;;1.38;;
41201;SDS011;26936;50.524;8.684;2023-05-02T10:53:32;2.90;;;1.23;;
41201;SDS011;26936;50.524;8.684;2023-05-02T10:56:07;1.60;;;0.90;;
41201;SDS011;26936;50.524;8.684;2023-05-02T10:58:37;1.08;;;0.95;;
41201;SDS011;26936;50.524;8.684;2023-05-02T11:06:19;1.25;;;1.02;;
41201;SDS011;26936;50.524;8.684;2023-05-02T11:08:44;0.85;;;0.77;;
41201;SDS011;26936;50.524;8.684;2023-05-02T11:14:08;1.08;;;0.80;;
41201;SDS011;26936;50.524;8.684;2023-05-02T11:19:25;0.90;;;0.70;;
41201;SDS011;26936;50.524;8.684;2023-05-02T11:24:46;1.10;;;0.70;;
41201;SDS011;26936;50.524;8.684;2023-05-02T11:30:10;1.33;;;0.88;;
41201;SDS011;26936;50.524;8.684;2023-05-02T11:35:14;1.98;;;1.00;;
41201;SDS011;26936;50.524;8.684;2023-05-02T11:37:41;1.08;;;0.93;;
41201;SDS011;26936;50.524;8.684;2023-05-02T11:40:10;1.67;;;1.20;;
41201;SDS011;26936;50.524;8.684;2023-05-02T11:42:36;2.33;;;1.10;;
41201;SDS011;26936;50.524;8.684;2023-05-02T11:45:01;1.42;;;1.13;;
41201;SDS011;26936;50.524;8.684;2023-05-02T11:47:27;2.65;;;1.35;;
41201;SDS011;26936;50.524;8.684;2023-05-02T11:49:54;4.80;;;1.85;;
41201;SDS011;26936;50.524;8.684;2023-05-02T11:52:20;3.63;;;1.70;;
41201;SDS011;26936;50.524;8.684;2023-05-02T11:54:46;4.00;;;2.00;;
41201;SDS011;26936;50.524;8.684;2023-05-02T11:57:12;3.40;;;2.05;;
41201;SDS011;26936;50.524;8.684;2023-05-02T11:59:53;5.78;;;2.13;;
41201;SDS011;26936;50.524;8.684;2023-05-02T12:02:38;5.22;;;2.15;;
41201;SDS011;26936;50.524;8.684;2023-05-02T12:05:08;4.25;;;1.52;;
41201;SDS011;26936;50.524;8.684;2023-05-02T12:07:42;6.28;;;1.95;;
41201;SDS011;26936;50.524;8.684;2023-05-02T12:10:09;2.63;;;1.33;;
41201;SDS011;26936;50.524;8.684;2023-05-02T12:12:35;2.08;;;1.17;;
41201;SDS011;26936;50.524;8.684;2023-05-02T12:15:06;1.63;;;1.10;;
41201;SDS011;26936;50.524;8.684;2023-05-02T12:17:33;6.68;;;1.60;;
41201;SDS011;26936;50.524;8.684;2023-05-02T12:20:03;3.55;;;1.45;;
41201;SDS011;26936;50.524;8.684;2023-05-02T12:22:30;1.27;;;0.88;;
41201;SDS011;26936;50.524;8.684;2023-05-02T12:24:55;2.25;;;1.25;;
41201;SDS011;26936;50.524;8.684;2023-05-02T12:27:21;1.70;;;1.20;;
41201;SDS011;26936;50.524;8.684;2023-05-02T12:29:47;2.30;;;1.40;;
41201;SDS011;26936;50.524;8.684;2023-05-02T12:32:13;2.72;;;1.30;;
41201;SDS011;26936;50.524;8.684;2023-05-02T12:34:40;1.77;;;1.40;;
41201;SDS011;26936;50.524;8.684;2023-05-02T12:37:06;5.60;;;2.47;;
41201;SDS011;26936;50.524;8.684;2023-05-02T12:39:36;2.20;;;1.70;;
41201;SDS011;26936;50.524;8.684;2023-05-02T12:42:12;1.65;;;1.30;;
41201;SDS011;26936;50.524;8.684;2023-05-02T12:47:06;2.15;;;1.40;;
41201;SDS011;26936;50.524;8.684;2023-05-02T12:49:32;2.53;;;1.40;;
41201;SDS011;26936;50.524;8.684;2023-05-02T12:51:57;2.35;;;1.02;;
41201;SDS011;26936;50.524;8.684;2023-05-02T12:54:23;3.10;;;1.50;;
41201;SDS011;26936;50.524;8.684;2023-05-02T12:56:50;1.95;;;1.33;;
41201;SDS011;26936;50.524;8.684;2023-05-02T12:59:24;2.80;;;1.60;;
41201;SDS011;26936;50.524;8.684;2023-05-02T13:01:53;3.63;;;1.33;;
41201;SDS011;26936;50.524;8.684;2023-05-02T13:04:19;1.48;;;1.33;;
41201;SDS011;26936;50.524;8.684;2023-05-02T13:06:44;2.80;;;1.50;;
41201;SDS011;26936;50.524;8.684;2023-05-02T13:09:09;2.33;;;1.40;;
41201;SDS011;26936;50.524;8.684;2023-05-02T13:11:34;2.70;;;1.63;;
41201;SDS011;26936;50.524;8.684;2023-05-02T13:14:00;2.97;;;1.77;;
41201;SDS011;26936;50.524;8.684;2023-05-02T13:16:28;3.00;;;1.80;;
41201;SDS011;26936;50.524;8.684;2023-05-02T13:18:54;3.10;;;1.67;;
41201;SDS011;26936;50.524;8.684;2023-05-02T13:21:19;3.25;;;1.80;;
41201;SDS011;26936;50.524;8.684;2023-05-02T13:23:46;2.72;;;1.50;;
41201;SDS011;26936;50.524;8.684;2023-05-02T13:26:11;2.90;;;1.50;;
41201;SDS011;26936;50.524;8.684;2023-05-02T13:28:37;4.03;;;1.90;;
41201;SDS011;26936;50.524;8.684;2023-05-02T13:31:02;2.42;;;1.60;;
41201;SDS011;26936;50.524;8.684;2023-05-02T13:33:28;3.60;;;1.80;;
41201;SDS011;26936;50.524;8.684;2023-05-02T13:35:53;3.50;;;1.73;;
41201;SDS011;26936;50.524;8.684;2023-05-02T13:38:18;3.05;;;1.83;;
41201;SDS011;26936;50.524;8.684;2023-05-02T13:40:43;2.80;;;1.70;;
41201;SDS011;26936;50.524;8.684;2023-05-02T13:43:09;4.32;;;1.90;;
41201;SDS011;26936;50.524;8.684;2023-05-02T13:45:34;2.58;;;1.50;;
41201;SDS011;26936;50.524;8.684;2023-05-02T13:48:00;2.65;;;1.70;;
41201;SDS011;26936;50.524;8.684;2023-05-02T13:50:25;3.40;;;1.90;;
41201;SDS011;26936;50.524;8.684;2023-05-02T13:52:50;3.95;;;1.95;;
41201;SDS011;26936;50.524;8.684;2023-05-02T13:55:16;7.18;;;2.10;;
41201;SDS011;26936;50.524;8.684;2023-05-02T13:57:41;4.67;;;1.80;;
41201;SDS011;26936;50.524;8.684;2023-05-02T14:00:06;6.05;;;2.78;;
41201;SDS011;26936;50.524;8.684;2023-05-02T14:02:33;3.20;;;1.90;;
41201;SDS011;26936;50.524;8.684;2023-05-02T14:05:00;3.05;;;1.63;;
41201;SDS011;26936;50.524;8.684;2023-05-02T14:07:25;2.22;;;1.73;;
41201;SDS011;26936;50.524;8.684;2023-05-02T14:09:50;4.53;;;1.90;;
41201;SDS011;26936;50.524;8.684;2023-05-02T14:12:15;3.13;;;2.00;;
41201;SDS011;26936;50.524;8.684;2023-05-02T14:14:41;3.93;;;1.80;;
41201;SDS011;26936;50.524;8.684;2023-05-02T14:17:06;4.20;;;1.97;;
41201;SDS011;26936;50.524;8.684;2023-05-02T14:19:31;5.05;;;2.10;;
41201;SDS011;26936;50.524;8.684;2023-05-02T14:21:57;6.15;;;2.30;;
41201;SDS011;26936;50.524;8.684;2023-05-02T14:24:22;4.60;;;2.50;;
41201;SDS011;26936;50.524;8.684;2023-05-02T14:26:48;3.30;;;1.95;;
41201;SDS011;26936;50.524;8.684;2023-05-02T14:29:13;4.73;;;2.23;;
41201;SDS011;26936;50.524;8.684;2023-05-02T14:31:38;4.20;;;1.90;;
41201;SDS011;26936;50.524;8.684;2023-05-02T14:34:03;3.70;;;2.23;;
41201;SDS011;26936;50.524;8.684;2023-05-02T14:36:29;2.80;;;2.40;;
41201;SDS011;26936;50.524;8.684;2023-05-02T14:38:55;3.20;;;2.40;;
41201;SDS011;26936;50.524;8.684;2023-05-02T14:41:21;3.78;;;2.35;;
41201;SDS011;26936;50.524;8.684;2023-05-02T14:43:46;4.97;;;2.47;;
41201;SDS011;26936;50.524;8.684;2023-05-02T14:46:11;4.05;;;2.10;;
41201;SDS011;26936;50.524;8.684;2023-05-02T14:48:37;6.45;;;2.40;;
41201;SDS011;26936;50.524;8.684;2023-05-02T14:51:02;4.28;;;2.38;;
41201;SDS011;26936;50.524;8.684;2023-05-02T14:53:28;3.65;;;2.38;;
41201;SDS011;26936;50.524;8.684;2023-05-02T14:55:54;5.95;;;2.60;;
41201;SDS011;26936;50.524;8.684;2023-05-02T14:58:19;3.15;;;2.20;;
41201;SDS011;26936;50.524;8.684;2023-05-02T15:00:45;5.18;;;2.47;;
41201;SDS011;26936;50.524;8.684;2023-05-02T15:03:10;3.33;;;2.05;;
41201;SDS011;26936;50.524;8.684;2023-05-02T15:05:36;4.72;;;2.20;;
41201;SDS011;26936;50.524;8.684;2023-05-02T15:08:01;4.30;;;2.40;;
41201;SDS011;26936;50.524;8.684;2023-05-02T15:10:26;4.33;;;2.70;;
41201;SDS011;26936;50.524;8.684;2023-05-02T15:12:52;5.50;;;2.50;;
41201;SDS011;26936;50.524;8.684;2023-05-02T15:15:18;3.78;;;2.40;;
41201;SDS011;26936;50.524;8.684;2023-05-02T15:17:44;3.17;;;2.22;;